sensor_id;sensor_type;location;lat;lon;timestamp;temperature;humidity
6054;DHT22;3055;50.886;14.814;2023-12-20T00:01:00;6.00;99.90
6054;DHT22;3055;50.886;14.814;2023-12-20T00:03:28;6.00;99.90
6054;DHT22;3055;50.886;14.814;2023-12-20T00:05:56;6.00;99.90
6054;DHT22;3055;50.886;14.814;2023-12-20T00:08:23;6.00;99.90
6054;DHT22;3055;50.886;14.814;2023-12-20T00:10:50;6.10;99.90
6054;DHT22;3055;50.886;14.814;2023-12-20T00:13:17;6.10;99.90
6054;DHT22;3055;50.886;14.814;2023-12-20T00:15:44;6.10;99.90
6054;DHT22;3055;50.886;14.814;2023-12-20T00:18:11;6.20;99.90
6054;DHT22;3055;50.886;14.814;2023-12-20T00:20:39;6.30;99.90
6054;DHT22;3055;50.886;14.814;2023-12-20T00:23:06;6.40;99.90
6054;DHT22;3055;50.886;14.814;2023-12-20T00:25:34;6.40;99.90
6054;DHT22;3055;50.886;14.814;2023-12-20T00:28:01;6.50;99.90
6054;DHT22;3055;50.886;14.814;2023-12-20T00:30:29;6.50;99.90
6054;DHT22;3055;50.886;14.814;2023-12-20T00:32:56;6.50;99.90
6054;DHT22;3055;50.886;14.814;2023-12-20T00:35:23;6.50;99.90
6054;DHT22;3055;50.886;14.814;2023-12-20T00:37:51;6.50;99.90
6054;DHT22;3055;50.886;14.814;2023-12-20T00:40:18;6.50;99.90
6054;DHT22;3055;50.886;14.814;2023-12-20T00:42:46;6.50;99.90
6054;DHT22;3055;50.886;14.814;2023-12-20T00:45:13;6.50;99.90
6054;DHT22;3055;50.886;14.814;2023-12-20T00:47:41;6.50;99.90
6054;DHT22;3055;50.886;14.814;2023-12-20T00:50:09;6.50;99.90
6054;DHT22;3055;50.886;14.814;2023-12-20T00:52:36;6.40;99.90
6054;DHT22;3055;50.886;14.814;2023-12-20T00:55:05;6.40;99.90
6054;DHT22;3055;50.886;14.814;2023-12-20T00:57:32;6.30;99.90
6054;DHT22;3055;50.886;14.814;2023-12-20T01:00:00;6.30;99.90
6054;DHT22;3055;50.886;14.814;2023-12-20T01:02:27;6.40;99.90
6054;DHT22;3055;50.886;14.814;2023-12-20T01:04:54;6.40;99.90
6054;DHT22;3055;50.886;14.814;2023-12-20T01:07:21;6.50;99.90
6054;DHT22;3055;50.886;14.814;2023-12-20T01:09:48;6.50;99.90
6054;DHT22;3055;50.886;14.814;2023-12-20T01:12:16;6.60;99.90
6054;DHT22;3055;50.886;14.814;2023-12-20T01:14:43;6.60;99.90
6054;DHT22;3055;50.886;14.814;2023-12-20T01:17:10;6.60;99.90
6054;DHT22;3055;50.886;14.814;2023-12-20T01:19:37;6.60;99.90
6054;DHT22;3055;50.886;14.814;2023-12-20T01:22:04;6.60;99.90
6054;DHT22;3055;50.886;14.814;2023-12-20T01:24:31;6.60;99.90
6054;DHT22;3055;50.886;14.814;2023-12-20T01:26:59;6.50;99.90
6054;DHT22;3055;50.886;14.814;2023-12-20T01:29:27;6.50;99.90
6054;DHT22;3055;50.886;14.814;2023-12-20T01:31:54;6.50;99.90
6054;DHT22;3055;50.886;14.814;2023-12-20T01:34:21;6.40;99.90
6054;DHT22;3055;50.886;14.814;2023-12-20T01:36:48;6.40;99.90
6054;DHT22;3055;50.886;14.814;2023-12-20T01:39:15;6.40;99.90
6054;DHT22;3055;50.886;14.814;2023-12-20T01:41:42;6.40;99.90
6054;DHT22;3055;50.886;14.814;2023-12-20T01:44:09;6.40;99.90
6054;DHT22;3055;50.886;14.814;2023-12-20T01:46:38;6.40;99.90
6054;DHT22;3055;50.886;14.814;2023-12-20T01:49:05;6.50;99.90
6054;DHT22;3055;50.886;14.814;2023-12-20T01:51:33;6.50;99.90
6054;DHT22;3055;50.886;14.814;2023-12-20T01:54:00;6.50;99.90
6054;DHT22;3055;50.886;14.814;2023-12-20T01:56:29;6.50;99.90
6054;DHT22;3055;50.886;14.814;2023-12-20T01:58:56;6.50;99.90
6054;DHT22;3055;50.886;14.814;2023-12-20T02:01:24;6.40;99.90
6054;DHT22;3055;50.886;14.814;2023-12-20T02:03:55;6.40;99.90
6054;DHT22;3055;50.886;14.814;2023-12-20T02:06:23;6.40;99.90
6054;DHT22;3055;50.886;14.814;2023-12-20T02:08:51;6.40;99.90
6054;DHT22;3055;50.886;14.814;2023-12-20T02:11:18;6.40;99.90
6054;DHT22;3055;50.886;14.814;2023-12-20T02:13:44;6.40;99.90
6054;DHT22;3055;50.886;14.814;2023-12-20T02:16:11;6.40;99.90
6054;DHT22;3055;50.886;14.814;2023-12-20T02:18:39;6.40;99.90
6054;DHT22;3055;50.886;14.814;2023-12-20T02:21:09;6.30;99.90
6054;DHT22;3055;50.886;14.814;2023-12-20T02:23:38;6.30;99.90
6054;DHT22;3055;50.886;14.814;2023-12-20T02:26:05;6.30;99.90
6054;DHT22;3055;50.886;14.814;2023-12-20T02:28:32;6.30;99.90
6054;DHT22;3055;50.886;14.814;2023-12-20T02:31:00;6.30;99.90
6054;DHT22;3055;50.886;14.814;2023-12-20T02:33:27;6.30;99.90
6054;DHT22;3055;50.886;14.814;2023-12-20T02:35:54;6.20;99.90
6054;DHT22;3055;50.886;14.814;2023-12-20T02:38:21;6.20;99.90
6054;DHT22;3055;50.886;14.814;2023-12-20T02:40:49;6.20;99.90
6054;DHT22;3055;50.886;14.814;2023-12-20T02:43:17;6.20;99.90
6054;DHT22;3055;50.886;14.814;2023-12-20T02:45:44;6.20;99.90
6054;DHT22;3055;50.886;14.814;2023-12-20T02:48:11;6.20;99.90
6054;DHT22;3055;50.886;14.814;2023-12-20T02:50:38;6.20;99.90
6054;DHT22;3055;50.886;14.814;2023-12-20T02:53:05;6.10;99.90
6054;DHT22;3055;50.886;14.814;2023-12-20T02:55:32;6.10;99.90
6054;DHT22;3055;50.886;14.814;2023-12-20T02:58:00;6.10;99.90
6054;DHT22;3055;50.886;14.814;2023-12-20T03:00:28;6.10;99.90
6054;DHT22;3055;50.886;14.814;2023-12-20T03:02:55;6.10;99.90
6054;DHT22;3055;50.886;14.814;2023-12-20T03:05:22;6.10;99.90
6054;DHT22;3055;50.886;14.814;2023-12-20T03:07:48;6.10;99.90
6054;DHT22;3055;50.886;14.814;2023-12-20T03:10:15;6.10;99.90
6054;DHT22;3055;50.886;14.814;2023-12-20T03:12:42;6.00;99.90
6054;DHT22;3055;50.886;14.814;2023-12-20T03:15:11;6.00;99.90
6054;DHT22;3055;50.886;14.814;2023-12-20T03:17:38;6.00;99.90
6054;DHT22;3055;50.886;14.814;2023-12-20T03:20:06;5.90;99.90
6054;DHT22;3055;50.886;14.814;2023-12-20T03:22:34;5.90;99.90
6054;DHT22;3055;50.886;14.814;2023-12-20T03:25:01;5.90;99.90
6054;DHT22;3055;50.886;14.814;2023-12-20T03:27:28;5.90;99.90
6054;DHT22;3055;50.886;14.814;2023-12-20T03:29:55;5.90;99.90
6054;DHT22;3055;50.886;14.814;2023-12-20T03:32:24;6.00;99.90
6054;DHT22;3055;50.886;14.814;2023-12-20T03:34:51;5.90;99.90
6054;DHT22;3055;50.886;14.814;2023-12-20T03:37:18;6.00;99.90
6054;DHT22;3055;50.886;14.814;2023-12-20T03:39:45;6.00;99.90
6054;DHT22;3055;50.886;14.814;2023-12-20T03:42:12;6.00;99.90
6054;DHT22;3055;50.886;14.814;2023-12-20T03:44:39;6.00;99.90
6054;DHT22;3055;50.886;14.814;2023-12-20T03:47:07;6.00;99.90
6054;DHT22;3055;50.886;14.814;2023-12-20T03:49:35;6.00;99.90
6054;DHT22;3055;50.886;14.814;2023-12-20T03:52:04;6.00;99.90
6054;DHT22;3055;50.886;14.814;2023-12-20T03:54:31;6.00;99.90
6054;DHT22;3055;50.886;14.814;2023-12-20T03:56:58;5.90;99.90
6054;DHT22;3055;50.886;14.814;2023-12-20T03:59:25;5.90;99.90
6054;DHT22;3055;50.886;14.814;2023-12-20T04:01:53;5.90;99.90
6054;DHT22;3055;50.886;14.814;2023-12-20T04:04:20;5.90;99.90
6054;DHT22;3055;50.886;14.814;2023-12-20T04:06:48;5.90;99.90
6054;DHT22;3055;50.886;14.814;2023-12-20T04:09:15;5.90;99.90
6054;DHT22;3055;50.886;14.814;2023-12-20T04:11:42;5.90;99.90
6054;DHT22;3055;50.886;14.814;2023-12-20T04:14:09;5.90;99.90
6054;DHT22;3055;50.886;14.814;2023-12-20T04:16:36;5.90;99.90
6054;DHT22;3055;50.886;14.814;2023-12-20T04:19:04;5.80;99.90
6054;DHT22;3055;50.886;14.814;2023-12-20T04:21:31;5.90;99.90
6054;DHT22;3055;50.886;14.814;2023-12-20T04:24:00;5.90;99.90
6054;DHT22;3055;50.886;14.814;2023-12-20T04:26:27;5.80;99.90
6054;DHT22;3055;50.886;14.814;2023-12-20T04:28:55;5.80;99.90
6054;DHT22;3055;50.886;14.814;2023-12-20T04:31:22;5.80;99.90
6054;DHT22;3055;50.886;14.814;2023-12-20T04:33:49;5.80;99.90
6054;DHT22;3055;50.886;14.814;2023-12-20T04:36:16;5.70;99.90
6054;DHT22;3055;50.886;14.814;2023-12-20T04:38:43;5.70;99.90
6054;DHT22;3055;50.886;14.814;2023-12-20T04:41:11;5.70;99.90
6054;DHT22;3055;50.886;14.814;2023-12-20T04:43:41;5.70;99.90
6054;DHT22;3055;50.886;14.814;2023-12-20T04:46:08;5.70;99.90
6054;DHT22;3055;50.886;14.814;2023-12-20T04:48:35;5.60;99.90
6054;DHT22;3055;50.886;14.814;2023-12-20T04:51:02;5.60;99.90
6054;DHT22;3055;50.886;14.814;2023-12-20T04:53:30;5.60;99.90
6054;DHT22;3055;50.886;14.814;2023-12-20T04:55:57;5.60;99.90
6054;DHT22;3055;50.886;14.814;2023-12-20T04:58:25;5.60;99.90
6054;DHT22;3055;50.886;14.814;2023-12-20T05:00:52;5.50;99.90
6054;DHT22;3055;50.886;14.814;2023-12-20T05:03:19;5.60;99.90
6054;DHT22;3055;50.886;14.814;2023-12-20T05:05:46;5.60;99.90
6054;DHT22;3055;50.886;14.814;2023-12-20T05:08:13;5.50;99.90
6054;DHT22;3055;50.886;14.814;2023-12-20T05:10:41;5.50;99.90
6054;DHT22;3055;50.886;14.814;2023-12-20T05:13:08;5.50;99.90
6054;DHT22;3055;50.886;14.814;2023-12-20T05:15:36;5.40;99.90
6054;DHT22;3055;50.886;14.814;2023-12-20T05:18:04;5.40;99.90
6054;DHT22;3055;50.886;14.814;2023-12-20T05:20:31;5.40;99.90
6054;DHT22;3055;50.886;14.814;2023-12-20T05:22:58;5.40;99.90
6054;DHT22;3055;50.886;14.814;2023-12-20T05:25:25;5.40;99.90
6054;DHT22;3055;50.886;14.814;2023-12-20T05:27:52;5.30;99.90
6054;DHT22;3055;50.886;14.814;2023-12-20T05:30:19;5.40;99.90
6054;DHT22;3055;50.886;14.814;2023-12-20T05:32:47;5.40;99.90
6054;DHT22;3055;50.886;14.814;2023-12-20T05:35:15;5.40;99.90
6054;DHT22;3055;50.886;14.814;2023-12-20T05:37:42;5.40;99.90
6054;DHT22;3055;50.886;14.814;2023-12-20T05:40:10;5.40;99.90
6054;DHT22;3055;50.886;14.814;2023-12-20T05:42:37;5.40;99.90
6054;DHT22;3055;50.886;14.814;2023-12-20T05:45:05;5.40;99.90
6054;DHT22;3055;50.886;14.814;2023-12-20T05:47:32;5.40;99.90
6054;DHT22;3055;50.886;14.814;2023-12-20T05:50:01;5.40;99.90
6054;DHT22;3055;50.886;14.814;2023-12-20T05:52:28;5.40;99.90
6054;DHT22;3055;50.886;14.814;2023-12-20T05:54:55;5.40;99.90
6054;DHT22;3055;50.886;14.814;2023-12-20T05:57:23;5.50;99.90
6054;DHT22;3055;50.886;14.814;2023-12-20T05:59:50;5.40;99.90
6054;DHT22;3055;50.886;14.814;2023-12-20T06:02:17;5.40;99.90
6054;DHT22;3055;50.886;14.814;2023-12-20T06:04:44;5.50;99.90
6054;DHT22;3055;50.886;14.814;2023-12-20T06:07:13;5.50;99.90
6054;DHT22;3055;50.886;14.814;2023-12-20T06:09:40;5.50;99.90
6054;DHT22;3055;50.886;14.814;2023-12-20T06:12:08;5.50;99.90
6054;DHT22;3055;50.886;14.814;2023-12-20T06:14:35;5.50;99.90
6054;DHT22;3055;50.886;14.814;2023-12-20T06:17:02;5.50;99.90
6054;DHT22;3055;50.886;14.814;2023-12-20T06:19:30;5.50;99.90
6054;DHT22;3055;50.886;14.814;2023-12-20T06:21:57;5.50;99.90
6054;DHT22;3055;50.886;14.814;2023-12-20T06:24:25;5.50;99.90
6054;DHT22;3055;50.886;14.814;2023-12-20T06:26:53;5.50;99.90
6054;DHT22;3055;50.886;14.814;2023-12-20T06:29:21;5.50;99.90
6054;DHT22;3055;50.886;14.814;2023-12-20T06:31:48;5.50;99.90
6054;DHT22;3055;50.886;14.814;2023-12-20T06:34:15;5.40;99.90
6054;DHT22;3055;50.886;14.814;2023-12-20T06:36:42;5.40;99.90
6054;DHT22;3055;50.886;14.814;2023-12-20T06:39:09;5.40;99.90
6054;DHT22;3055;50.886;14.814;2023-12-20T06:41:39;5.40;99.90
6054;DHT22;3055;50.886;14.814;2023-12-20T06:44:06;5.30;99.90
6054;DHT22;3055;50.886;14.814;2023-12-20T06:46:34;5.40;99.90
6054;DHT22;3055;50.886;14.814;2023-12-20T06:49:01;5.40;99.90
6054;DHT22;3055;50.886;14.814;2023-12-20T06:51:28;5.40;99.90
6054;DHT22;3055;50.886;14.814;2023-12-20T06:53:56;5.50;99.90
6054;DHT22;3055;50.886;14.814;2023-12-20T06:56:23;5.40;99.90
6054;DHT22;3055;50.886;14.814;2023-12-20T06:58:52;5.40;99.90
6054;DHT22;3055;50.886;14.814;2023-12-20T07:01:19;5.50;99.90
6054;DHT22;3055;50.886;14.814;2023-12-20T07:03:46;5.50;99.90
6054;DHT22;3055;50.886;14.814;2023-12-20T07:06:13;5.50;99.90
6054;DHT22;3055;50.886;14.814;2023-12-20T07:08:42;5.60;99.90
6054;DHT22;3055;50.886;14.814;2023-12-20T07:11:09;5.50;99.90
6054;DHT22;3055;50.886;14.814;2023-12-20T07:13:36;5.50;99.90
6054;DHT22;3055;50.886;14.814;2023-12-20T07:16:05;5.60;99.90
6054;DHT22;3055;50.886;14.814;2023-12-20T07:18:32;5.50;99.90
6054;DHT22;3055;50.886;14.814;2023-12-20T07:20:59;5.50;99.90
6054;DHT22;3055;50.886;14.814;2023-12-20T07:23:26;5.60;99.90
6054;DHT22;3055;50.886;14.814;2023-12-20T07:25:53;5.60;99.90
6054;DHT22;3055;50.886;14.814;2023-12-20T07:28:20;5.60;99.90
6054;DHT22;3055;50.886;14.814;2023-12-20T07:30:48;5.60;99.90
6054;DHT22;3055;50.886;14.814;2023-12-20T07:33:16;5.60;99.90
6054;DHT22;3055;50.886;14.814;2023-12-20T07:35:43;5.60;99.90
6054;DHT22;3055;50.886;14.814;2023-12-20T07:38:11;5.60;99.90
6054;DHT22;3055;50.886;14.814;2023-12-20T07:40:39;5.60;99.90
6054;DHT22;3055;50.886;14.814;2023-12-20T07:43:06;5.60;99.90
6054;DHT22;3055;50.886;14.814;2023-12-20T07:45:33;5.60;99.90
6054;DHT22;3055;50.886;14.814;2023-12-20T07:48:00;5.70;99.90
6054;DHT22;3055;50.886;14.814;2023-12-20T07:50:28;5.70;99.90
6054;DHT22;3055;50.886;14.814;2023-12-20T07:52:55;5.70;99.90
6054;DHT22;3055;50.886;14.814;2023-12-20T07:55:26;5.70;99.90
6054;DHT22;3055;50.886;14.814;2023-12-20T07:57:53;5.80;99.90
6054;DHT22;3055;50.886;14.814;2023-12-20T08:00:20;5.80;99.90
6054;DHT22;3055;50.886;14.814;2023-12-20T08:02:47;5.80;99.90
6054;DHT22;3055;50.886;14.814;2023-12-20T08:05:14;5.80;99.90
6054;DHT22;3055;50.886;14.814;2023-12-20T08:07:43;5.70;99.90
6054;DHT22;3055;50.886;14.814;2023-12-20T08:10:10;5.70;99.90
6054;DHT22;3055;50.886;14.814;2023-12-20T08:12:38;5.70;99.90
6054;DHT22;3055;50.886;14.814;2023-12-20T08:15:07;5.80;99.90
6054;DHT22;3055;50.886;14.814;2023-12-20T08:17:34;5.70;99.90
6054;DHT22;3055;50.886;14.814;2023-12-20T08:20:01;5.80;99.90
6054;DHT22;3055;50.886;14.814;2023-12-20T08:22:28;5.80;99.90
6054;DHT22;3055;50.886;14.814;2023-12-20T08:24:57;5.90;99.90
6054;DHT22;3055;50.886;14.814;2023-12-20T08:27:24;5.90;99.90
6054;DHT22;3055;50.886;14.814;2023-12-20T08:29:51;5.90;99.90
6054;DHT22;3055;50.886;14.814;2023-12-20T08:32:18;5.90;99.90
6054;DHT22;3055;50.886;14.814;2023-12-20T08:34:45;5.90;99.90
6054;DHT22;3055;50.886;14.814;2023-12-20T08:37:12;5.90;99.90
6054;DHT22;3055;50.886;14.814;2023-12-20T08:39:39;5.90;99.90
6054;DHT22;3055;50.886;14.814;2023-12-20T08:42:07;5.90;99.90
6054;DHT22;3055;50.886;14.814;2023-12-20T08:44:34;5.80;99.90
6054;DHT22;3055;50.886;14.814;2023-12-20T08:47:01;5.90;99.90
6054;DHT22;3055;50.886;14.814;2023-12-20T08:49:28;5.80;99.90
6054;DHT22;3055;50.886;14.814;2023-12-20T08:51:55;5.70;99.90
6054;DHT22;3055;50.886;14.814;2023-12-20T08:54:22;5.70;99.90
6054;DHT22;3055;50.886;14.814;2023-12-20T08:56:50;5.70;99.90
6054;DHT22;3055;50.886;14.814;2023-12-20T08:59:18;5.60;99.90
6054;DHT22;3055;50.886;14.814;2023-12-20T09:01:45;5.60;99.90
6054;DHT22;3055;50.886;14.814;2023-12-20T09:04:13;5.70;99.90
6054;DHT22;3055;50.886;14.814;2023-12-20T09:06:40;5.80;99.90
6054;DHT22;3055;50.886;14.814;2023-12-20T09:09:07;6.00;99.90
6054;DHT22;3055;50.886;14.814;2023-12-20T09:11:39;6.20;99.90
6054;DHT22;3055;50.886;14.814;2023-12-20T09:14:06;6.40;99.90
6054;DHT22;3055;50.886;14.814;2023-12-20T09:16:34;6.50;99.90
6054;DHT22;3055;50.886;14.814;2023-12-20T09:19:01;6.70;99.90
6054;DHT22;3055;50.886;14.814;2023-12-20T09:21:29;6.80;99.90
6054;DHT22;3055;50.886;14.814;2023-12-20T09:23:56;7.10;99.90
6054;DHT22;3055;50.886;14.814;2023-12-20T09:26:24;7.20;99.90
6054;DHT22;3055;50.886;14.814;2023-12-20T09:28:51;7.20;99.90
6054;DHT22;3055;50.886;14.814;2023-12-20T09:31:18;7.30;99.90
6054;DHT22;3055;50.886;14.814;2023-12-20T09:33:47;7.30;99.90
6054;DHT22;3055;50.886;14.814;2023-12-20T09:36:14;7.30;99.90
6054;DHT22;3055;50.886;14.814;2023-12-20T09:38:41;7.30;99.90
6054;DHT22;3055;50.886;14.814;2023-12-20T09:41:08;7.30;99.90
6054;DHT22;3055;50.886;14.814;2023-12-20T09:43:37;7.30;99.90
6054;DHT22;3055;50.886;14.814;2023-12-20T09:46:06;7.20;99.90
6054;DHT22;3055;50.886;14.814;2023-12-20T09:48:33;7.20;99.90
6054;DHT22;3055;50.886;14.814;2023-12-20T09:51:03;7.20;95.50
6054;DHT22;3055;50.886;14.814;2023-12-20T09:53:31;7.20;99.90
6054;DHT22;3055;50.886;14.814;2023-12-20T09:56:03;7.20;99.90
6054;DHT22;3055;50.886;14.814;2023-12-20T09:58:32;7.20;99.90
6054;DHT22;3055;50.886;14.814;2023-12-20T10:00:59;7.20;99.90
6054;DHT22;3055;50.886;14.814;2023-12-20T10:03:27;7.20;99.90
6054;DHT22;3055;50.886;14.814;2023-12-20T10:05:55;7.20;99.90
6054;DHT22;3055;50.886;14.814;2023-12-20T10:08:24;7.30;47.40
6054;DHT22;3055;50.886;14.814;2023-12-20T10:10:52;7.40;1.00
6054;DHT22;3055;50.886;14.814;2023-12-20T10:13:19;7.50;99.90
6054;DHT22;3055;50.886;14.814;2023-12-20T10:15:46;7.60;1.00
6054;DHT22;3055;50.886;14.814;2023-12-20T10:18:13;7.50;1.00
6054;DHT22;3055;50.886;14.814;2023-12-20T10:20:41;7.60;1.00
6054;DHT22;3055;50.886;14.814;2023-12-20T10:23:08;7.60;1.00
6054;DHT22;3055;50.886;14.814;2023-12-20T10:25:37;7.60;99.90
6054;DHT22;3055;50.886;14.814;2023-12-20T10:28:11;7.60;99.90
6054;DHT22;3055;50.886;14.814;2023-12-20T10:30:40;7.70;99.90
6054;DHT22;3055;50.886;14.814;2023-12-20T10:33:07;7.70;99.90
6054;DHT22;3055;50.886;14.814;2023-12-20T10:35:35;7.70;96.10
6054;DHT22;3055;50.886;14.814;2023-12-20T10:38:04;7.60;94.30
6054;DHT22;3055;50.886;14.814;2023-12-20T10:40:34;7.60;96.30
6054;DHT22;3055;50.886;14.814;2023-12-20T10:43:04;7.50;66.70
6054;DHT22;3055;50.886;14.814;2023-12-20T10:45:32;7.50;99.90
6054;DHT22;3055;50.886;14.814;2023-12-20T10:47:59;7.40;99.90
6054;DHT22;3055;50.886;14.814;2023-12-20T10:50:27;7.50;99.90
6054;DHT22;3055;50.886;14.814;2023-12-20T10:52:55;7.70;99.90
6054;DHT22;3055;50.886;14.814;2023-12-20T10:55:23;7.80;1.00
6054;DHT22;3055;50.886;14.814;2023-12-20T10:57:51;7.90;1.00
6054;DHT22;3055;50.886;14.814;2023-12-20T11:00:21;8.00;1.00
6054;DHT22;3055;50.886;14.814;2023-12-20T11:02:49;8.10;1.00
6054;DHT22;3055;50.886;14.814;2023-12-20T11:05:25;8.00;1.00
6054;DHT22;3055;50.886;14.814;2023-12-20T11:07:58;8.00;1.00
6054;DHT22;3055;50.886;14.814;2023-12-20T11:10:31;8.00;1.00
6054;DHT22;3055;50.886;14.814;2023-12-20T11:13:08;8.00;1.00
6054;DHT22;3055;50.886;14.814;2023-12-20T11:15:38;8.10;1.00
6054;DHT22;3055;50.886;14.814;2023-12-20T11:18:05;8.00;1.00
6054;DHT22;3055;50.886;14.814;2023-12-20T11:20:36;8.00;1.00
6054;DHT22;3055;50.886;14.814;2023-12-20T11:23:04;7.90;1.00
6054;DHT22;3055;50.886;14.814;2023-12-20T11:25:46;7.90;1.00
6054;DHT22;3055;50.886;14.814;2023-12-20T11:28:14;7.90;1.00
6054;DHT22;3055;50.886;14.814;2023-12-20T11:30:50;7.90;1.00
6054;DHT22;3055;50.886;14.814;2023-12-20T11:33:21;8.10;1.00
6054;DHT22;3055;50.886;14.814;2023-12-20T11:35:49;8.10;99.90
6054;DHT22;3055;50.886;14.814;2023-12-20T11:38:16;8.10;1.00
6054;DHT22;3055;50.886;14.814;2023-12-20T11:40:43;8.10;99.90
6054;DHT22;3055;50.886;14.814;2023-12-20T11:43:10;7.90;99.90
6054;DHT22;3055;50.886;14.814;2023-12-20T11:45:50;7.90;99.90
6054;DHT22;3055;50.886;14.814;2023-12-20T11:48:18;7.80;99.90
6054;DHT22;3055;50.886;14.814;2023-12-20T11:50:46;7.70;99.90
6054;DHT22;3055;50.886;14.814;2023-12-20T11:53:13;7.60;99.90
6054;DHT22;3055;50.886;14.814;2023-12-20T11:55:40;7.70;99.90
6054;DHT22;3055;50.886;14.814;2023-12-20T11:58:07;7.70;99.90
6054;DHT22;3055;50.886;14.814;2023-12-20T12:00:35;7.70;99.90
6054;DHT22;3055;50.886;14.814;2023-12-20T12:03:04;7.70;99.90
6054;DHT22;3055;50.886;14.814;2023-12-20T12:05:31;7.70;99.90
6054;DHT22;3055;50.886;14.814;2023-12-20T12:07:58;7.70;99.90
6054;DHT22;3055;50.886;14.814;2023-12-20T12:10:26;7.80;99.90
6054;DHT22;3055;50.886;14.814;2023-12-20T12:12:53;7.80;99.90
6054;DHT22;3055;50.886;14.814;2023-12-20T12:15:20;7.80;99.90
6054;DHT22;3055;50.886;14.814;2023-12-20T12:17:53;7.70;99.90
6054;DHT22;3055;50.886;14.814;2023-12-20T12:20:23;7.60;99.90
6054;DHT22;3055;50.886;14.814;2023-12-20T12:22:58;7.60;99.90
6054;DHT22;3055;50.886;14.814;2023-12-20T12:25:25;7.50;99.90
6054;DHT22;3055;50.886;14.814;2023-12-20T12:27:52;7.50;99.90
6054;DHT22;3055;50.886;14.814;2023-12-20T12:30:19;7.50;99.90
6054;DHT22;3055;50.886;14.814;2023-12-20T12:32:47;7.40;99.90
6054;DHT22;3055;50.886;14.814;2023-12-20T12:35:14;7.40;99.90
6054;DHT22;3055;50.886;14.814;2023-12-20T12:37:43;7.40;99.90
6054;DHT22;3055;50.886;14.814;2023-12-20T12:40:12;7.40;99.90
6054;DHT22;3055;50.886;14.814;2023-12-20T12:42:40;7.40;99.90
6054;DHT22;3055;50.886;14.814;2023-12-20T12:45:08;7.40;99.90
6054;DHT22;3055;50.886;14.814;2023-12-20T12:47:37;7.30;99.90
6054;DHT22;3055;50.886;14.814;2023-12-20T12:50:05;7.30;99.90
6054;DHT22;3055;50.886;14.814;2023-12-20T12:52:32;7.40;99.90
6054;DHT22;3055;50.886;14.814;2023-12-20T12:55:01;7.40;99.90
6054;DHT22;3055;50.886;14.814;2023-12-20T12:57:29;7.40;99.90
6054;DHT22;3055;50.886;14.814;2023-12-20T12:59:56;7.40;99.90
6054;DHT22;3055;50.886;14.814;2023-12-20T13:02:24;7.30;99.90
6054;DHT22;3055;50.886;14.814;2023-12-20T13:04:51;7.30;99.90
6054;DHT22;3055;50.886;14.814;2023-12-20T13:07:18;7.20;99.90
6054;DHT22;3055;50.886;14.814;2023-12-20T13:09:45;7.10;99.90
6054;DHT22;3055;50.886;14.814;2023-12-20T13:12:14;7.10;99.90
6054;DHT22;3055;50.886;14.814;2023-12-20T13:14:41;7.00;99.90
6054;DHT22;3055;50.886;14.814;2023-12-20T13:17:08;6.90;99.90
6054;DHT22;3055;50.886;14.814;2023-12-20T13:19:35;6.90;99.90
6054;DHT22;3055;50.886;14.814;2023-12-20T13:22:02;6.90;99.90
6054;DHT22;3055;50.886;14.814;2023-12-20T13:24:29;6.90;99.90
6054;DHT22;3055;50.886;14.814;2023-12-20T13:26:58;6.90;99.90
6054;DHT22;3055;50.886;14.814;2023-12-20T13:29:27;7.00;99.90
6054;DHT22;3055;50.886;14.814;2023-12-20T13:31:54;7.00;99.90
6054;DHT22;3055;50.886;14.814;2023-12-20T13:34:22;7.10;99.90
6054;DHT22;3055;50.886;14.814;2023-12-20T13:36:49;7.10;99.90
6054;DHT22;3055;50.886;14.814;2023-12-20T13:39:16;7.10;99.90
6054;DHT22;3055;50.886;14.814;2023-12-20T13:41:43;7.10;99.90
6054;DHT22;3055;50.886;14.814;2023-12-20T13:44:11;7.20;99.90
6054;DHT22;3055;50.886;14.814;2023-12-20T13:46:40;7.30;99.90
6054;DHT22;3055;50.886;14.814;2023-12-20T13:49:07;7.40;99.90
6054;DHT22;3055;50.886;14.814;2023-12-20T13:51:35;7.50;99.90
6054;DHT22;3055;50.886;14.814;2023-12-20T13:54:02;7.60;99.90
6054;DHT22;3055;50.886;14.814;2023-12-20T13:56:29;7.60;99.90
6054;DHT22;3055;50.886;14.814;2023-12-20T13:58:56;7.60;99.90
6054;DHT22;3055;50.886;14.814;2023-12-20T14:01:23;7.60;99.90
6054;DHT22;3055;50.886;14.814;2023-12-20T14:03:51;7.60;99.90
6054;DHT22;3055;50.886;14.814;2023-12-20T14:06:19;7.50;99.90
6054;DHT22;3055;50.886;14.814;2023-12-20T14:08:46;7.50;99.90
6054;DHT22;3055;50.886;14.814;2023-12-20T14:11:13;7.40;99.90
6054;DHT22;3055;50.886;14.814;2023-12-20T14:13:41;7.40;99.90
6054;DHT22;3055;50.886;14.814;2023-12-20T14:16:09;7.40;99.90
6054;DHT22;3055;50.886;14.814;2023-12-20T14:18:36;7.30;99.90
6054;DHT22;3055;50.886;14.814;2023-12-20T14:21:05;7.30;99.90
6054;DHT22;3055;50.886;14.814;2023-12-20T14:23:32;7.30;99.90
6054;DHT22;3055;50.886;14.814;2023-12-20T14:26:00;7.30;99.90
6054;DHT22;3055;50.886;14.814;2023-12-20T14:28:28;7.30;99.90
6054;DHT22;3055;50.886;14.814;2023-12-20T14:30:55;7.30;99.90
6054;DHT22;3055;50.886;14.814;2023-12-20T14:33:22;7.30;99.90
6054;DHT22;3055;50.886;14.814;2023-12-20T14:35:50;7.30;99.90
6054;DHT22;3055;50.886;14.814;2023-12-20T14:38:19;7.30;99.90
6054;DHT22;3055;50.886;14.814;2023-12-20T14:40:46;7.30;99.90
6054;DHT22;3055;50.886;14.814;2023-12-20T14:43:13;7.30;99.90
6054;DHT22;3055;50.886;14.814;2023-12-20T14:45:41;7.20;99.90
6054;DHT22;3055;50.886;14.814;2023-12-20T14:48:09;7.20;99.90
6054;DHT22;3055;50.886;14.814;2023-12-20T14:50:36;7.20;99.90
6054;DHT22;3055;50.886;14.814;2023-12-20T14:53:03;7.20;99.90
6054;DHT22;3055;50.886;14.814;2023-12-20T14:55:32;7.20;99.90
6054;DHT22;3055;50.886;14.814;2023-12-20T14:57:59;7.20;99.90
6054;DHT22;3055;50.886;14.814;2023-12-20T15:00:26;7.10;99.90
6054;DHT22;3055;50.886;14.814;2023-12-20T15:02:54;7.10;99.90
6054;DHT22;3055;50.886;14.814;2023-12-20T15:05:21;7.10;99.90
6054;DHT22;3055;50.886;14.814;2023-12-20T15:07:48;7.10;99.90
6054;DHT22;3055;50.886;14.814;2023-12-20T15:10:15;7.00;99.90
6054;DHT22;3055;50.886;14.814;2023-12-20T15:12:45;7.10;99.90
6054;DHT22;3055;50.886;14.814;2023-12-20T15:15:12;7.10;99.90
6054;DHT22;3055;50.886;14.814;2023-12-20T15:17:40;7.00;99.90
6054;DHT22;3055;50.886;14.814;2023-12-20T15:20:07;7.00;99.90
6054;DHT22;3055;50.886;14.814;2023-12-20T15:22:36;7.00;99.90
6054;DHT22;3055;50.886;14.814;2023-12-20T15:25:04;7.00;99.90
6054;DHT22;3055;50.886;14.814;2023-12-20T15:27:33;7.00;99.90
6054;DHT22;3055;50.886;14.814;2023-12-20T15:30:03;7.10;99.90
6054;DHT22;3055;50.886;14.814;2023-12-20T15:32:30;7.00;99.90
6054;DHT22;3055;50.886;14.814;2023-12-20T15:34:58;7.10;99.90
6054;DHT22;3055;50.886;14.814;2023-12-20T15:37:25;7.00;99.90
6054;DHT22;3055;50.886;14.814;2023-12-20T15:39:53;7.00;99.90
6054;DHT22;3055;50.886;14.814;2023-12-20T15:42:20;7.00;99.90
6054;DHT22;3055;50.886;14.814;2023-12-20T15:44:47;7.00;99.90
6054;DHT22;3055;50.886;14.814;2023-12-20T15:47:15;7.00;99.90
6054;DHT22;3055;50.886;14.814;2023-12-20T15:49:42;7.00;99.90
6054;DHT22;3055;50.886;14.814;2023-12-20T15:52:11;7.00;99.90
6054;DHT22;3055;50.886;14.814;2023-12-20T15:54:38;7.00;99.90
6054;DHT22;3055;50.886;14.814;2023-12-20T15:57:07;6.90;99.90
6054;DHT22;3055;50.886;14.814;2023-12-20T15:59:35;6.90;99.90
6054;DHT22;3055;50.886;14.814;2023-12-20T16:02:02;6.90;99.90
6054;DHT22;3055;50.886;14.814;2023-12-20T16:04:31;6.80;99.90